Etusivu
METAR-TAF:

METAR-TAF

Lentoasemat :

Air Force Base Waterkloof

Waterkloof, Etelä-Afrikka

Leveyspiiri: 25-50S, Pituuspiiri: 028-13E, korkeus merenpinnasta: 1498 m

Tämänhetkinen sää

Tämä raportti tehtiin 56 minuuttia sitten, kello 10.00 UTC
Tuuli 4 kn pohjoisesta/koillisesta
Lämpötila 17°C
Kosteus 14%
Ilmanpaine 1026 hPa

METAR: FAWK 211000Z AUTO 02004KT //// // ////// 17/M11 Q1026

Aika: 12:56 (10:56 UTC)

Sääennuste

Tämä raportti tehtiin 1 tunti ja 56 minuuttia sitten, kello 09.00 UTC
Ennuste voimassa 21. päivästä klo 10 UTC - 21. päivään klo 18 UTC
Tuuli 3 kn eri suunnista
Näkyvyys 10 km tai enemmän
ei pilviä alle 1500 m:ssä eikä cumulonimbus-pilviä
Tulossa
21. päivästä klo 10 UTC - 21. päivään klo 12 UTC
Tuuli 10 kn pohjoisen/luoteesta

TAF: FAWK 210900Z 2110/2118 VRB03KT CAVOK TX20/2112Z TN12/2118Z BECMG 2110/2112 33010KT

Säähavainnot ja -ennusteet yli 4000 lentoasemalta (METAR- ja TAF-raportit).

Käytössä olevat sääasemat on merkitty karttaan keltaisilla ja punaisilla pisteillä.

Aseta hiiri pisteen päälle nähdäksesi sääaseman nimen.

Klikkaa sitten nähdäksesi säähavainnot ja -ennusteet.

Kartan vaihtaminen: klikkaa mustalla rastilla varustettuja vihreitä pisteitä, niin voit zoomata sisään; viivalla varustettua vihreää pistettä, niin voit zoomata ulos tai vihreitä nuolia, niin pääset viereisille kartoille.


METAR-TAF: